Time;durP1;ratioP1;P1;durP2;ratioP2;P2;SDS_P1;SDS_P2;PMS_P1;PMS_P2;Temp;Humidity;BMP_temperature;BMP_pressure;BME280_temperature;BME280_humidity;BME280_pressure;Samples;Min_cycle;Max_cycle;Signal;HPM_P1;HPM_P2
2023/08/15 00:02:32;;;;;;;9.57;8.90;;;23.80;99.90;;;;;;10429788;28;20309;-87
2023/08/15 00:07:35;;;;;;;9.70;9.00;;;23.70;99.90;;;;;;10427491;28;20276;-86
2023/08/15 00:12:38;;;;;;;8.83;8.27;;;23.70;99.90;;;;;;10427403;28;20260;-87
2023/08/15 00:17:40;;;;;;;9.60;8.70;;;23.70;99.90;;;;;;10435337;28;20240;-87
2023/08/15 00:22:42;;;;;;;9.33;8.73;;;23.70;99.90;;;;;;10438084;28;20230;-86
2023/08/15 00:27:46;;;;;;;9.40;8.70;;;23.70;99.90;;;;;;10436414;28;20261;-87
2023/08/15 00:32:48;;;;;;;9.70;8.90;;;23.70;99.90;;;;;;10437952;28;20304;-86
2023/08/15 00:37:50;;;;;;;9.70;8.90;;;23.70;99.90;;;;;;10454870;28;20225;-87
2023/08/15 00:42:54;;;;;;;10.10;9.40;;;23.70;99.90;;;;;;10456227;28;20230;-87
2023/08/15 00:47:57;;;;;;;9.80;8.80;;;23.70;99.90;;;;;;10466323;28;20217;-88
2023/08/15 00:53:00;;;;;;;8.80;8.10;;;23.70;99.90;;;;;;10467873;28;20218;-89
2023/08/15 00:58:03;;;;;;;11.83;8.10;;;23.70;99.90;;;;;;10464245;28;20229;-88
2023/08/15 01:03:06;;;;;;;9.77;8.87;;;23.70;99.90;;;;;;10452493;28;20608;-87
2023/08/15 01:08:10;;;;;;;9.37;8.67;;;23.70;99.90;;;;;;10432528;28;20222;-86
2023/08/15 01:13:21;;;;;;;10.83;8.73;;;23.60;99.90;;;;;;10433918;28;20206;-86
2023/08/15 01:18:29;;;;;;;10.83;9.07;;;23.60;99.90;;;;;;10435913;28;20721;-85
2023/08/15 01:23:42;;;;;;;9.33;8.43;;;23.60;99.90;;;;;;10432482;28;20198;-86
2023/08/15 01:28:44;;;;;;;10.20;9.30;;;23.50;99.90;;;;;;10454511;28;20221;-87
2023/08/15 01:33:58;;;;;;;9.03;8.50;;;23.50;99.90;;;;;;10434301;28;20218;-86
2023/08/15 01:39:05;;;;;;;10.27;9.47;;;23.40;99.90;;;;;;10429688;28;20219;-87
2023/08/15 01:44:10;;;;;;;10.67;9.90;;;23.40;99.90;;;;;;10434977;28;20238;-86
2023/08/15 01:49:12;;;;;;;10.80;9.73;;;23.40;99.90;;;;;;10432116;28;20204;-88
2023/08/15 01:54:16;;;;;;;9.20;8.60;;;23.30;99.90;;;;;;10432335;28;20218;-87
2023/08/15 01:59:18;;;;;;;8.97;8.40;;;23.30;99.90;;;;;;10427922;28;20230;-87
2023/08/15 02:04:20;;;;;;;9.97;8.90;;;23.30;99.90;;;;;;10428722;28;20299;-85
2023/08/15 02:09:24;;;;;;;9.40;8.67;;;23.20;99.90;;;;;;10424334;28;20682;-86
2023/08/15 02:14:26;;;;;;;10.27;9.50;;;23.20;99.90;;;;;;10426375;28;20226;-85
2023/08/15 02:19:28;;;;;;;11.43;9.00;;;23.20;99.90;;;;;;10426385;28;20803;-86
2023/08/15 02:24:32;;;;;;;10.20;9.40;;;23.20;99.90;;;;;;10437695;28;20219;-86
2023/08/15 02:29:34;;;;;;;9.90;9.30;;;23.20;99.90;;;;;;10432006;28;20190;-87
2023/08/15 02:34:36;;;;;;;10.97;10.07;;;23.20;99.90;;;;;;10428860;28;20217;-86
2023/08/15 02:39:40;;;;;;;10.63;9.60;;;23.20;99.90;;;;;;10448062;28;20226;-85
2023/08/15 02:44:43;;;;;;;9.60;8.80;;;23.20;99.90;;;;;;10426642;28;20292;-85
2023/08/15 02:49:45;;;;;;;10.10;9.27;;;23.20;99.90;;;;;;10425817;28;20201;-87
2023/08/15 02:54:49;;;;;;;10.83;9.93;;;23.10;99.90;;;;;;10424562;28;21151;-86
2023/08/15 02:59:51;;;;;;;10.60;9.90;;;23.10;99.90;;;;;;10425136;28;20943;-87
2023/08/15 03:04:53;;;;;;;10.37;9.60;;;23.20;99.90;;;;;;10428782;28;20237;-85
2023/08/15 03:09:56;;;;;;;10.80;9.83;;;23.10;99.90;;;;;;10436771;28;20198;-87
2023/08/15 03:14:59;;;;;;;9.93;9.23;;;23.10;99.90;;;;;;10430448;28;20241;-87
2023/08/15 03:20:01;;;;;;;10.30;9.50;;;23.00;99.90;;;;;;10436211;28;20319;-85
2023/08/15 03:25:08;;;;;;;10.80;10.03;;;23.00;99.90;;;;;;10430304;28;20295;-86
2023/08/15 03:30:11;;;;;;;8.83;8.23;;;23.00;99.90;;;;;;10431525;28;20194;-86
2023/08/15 03:35:15;;;;;;;9.97;9.27;;;23.00;99.90;;;;;;10415337;28;20230;-87
2023/08/15 03:40:18;;;;;;;11.17;10.17;;;23.00;99.90;;;;;;10447266;28;20317;-87
2023/08/15 03:45:21;;;;;;;10.67;9.97;;;22.90;99.90;;;;;;10424863;28;20254;-86
2023/08/15 03:50:23;;;;;;;10.80;9.90;;;22.90;99.90;;;;;;10428535;28;20206;-87
2023/08/15 03:55:27;;;;;;;9.63;8.97;;;22.80;99.90;;;;;;10429868;28;20222;-86
2023/08/15 04:00:29;;;;;;;12.37;11.23;;;22.80;99.90;;;;;;10430711;28;20308;-87
2023/08/15 04:05:31;;;;;;;10.60;9.80;;;22.80;99.90;;;;;;10431297;28;20244;-86
2023/08/15 04:10:39;;;;;;;11.47;10.77;;;22.80;99.90;;;;;;10435876;28;20213;-87
2023/08/15 04:15:41;;;;;;;11.60;10.90;;;22.70;99.90;;;;;;10431380;28;20714;-87
2023/08/15 04:20:44;;;;;;;10.77;9.90;;;22.70;99.90;;;;;;10443958;28;20218;-85
2023/08/15 04:25:47;;;;;;;11.50;10.50;;;22.70;99.90;;;;;;10436375;28;20227;-86
2023/08/15 04:30:49;;;;;;;11.07;10.37;;;22.70;99.90;;;;;;10429307;28;20207;-86
2023/08/15 04:35:52;;;;;;;10.90;10.20;;;22.60;99.90;;;;;;10426865;28;21254;-86
2023/08/15 04:40:55;;;;;;;12.00;11.00;;;22.60;99.90;;;;;;10430862;28;20237;-87
2023/08/15 04:45:57;;;;;;;11.03;10.23;;;22.60;99.90;;;;;;10453799;22;20237;-81
2023/08/15 04:50:59;;;;;;;12.50;11.50;;;22.60;99.90;;;;;;10414946;28;20678;-82
2023/08/15 04:56:05;;;;;;;12.10;10.87;;;22.70;99.90;;;;;;10419068;28;20241;-80
2023/08/15 05:01:09;;;;;;;12.20;11.40;;;22.60;99.90;;;;;;10412385;28;20222;-79
2023/08/15 05:06:11;;;;;;;11.90;10.53;;;22.60;99.90;;;;;;10401981;28;20253;-80
2023/08/15 05:11:14;;;;;;;11.73;10.90;;;22.60;99.90;;;;;;10411372;28;20202;-79
2023/08/15 05:16:17;;;;;;;11.03;10.10;;;22.70;99.90;;;;;;10419382;28;20227;-79
2023/08/15 05:21:19;;;;;;;12.00;11.00;;;22.70;99.90;;;;;;10424531;28;20227;-79
2023/08/15 05:26:23;;;;;;;12.20;9.57;;;22.90;99.90;;;;;;10419608;28;20230;-79
2023/08/15 05:31:25;;;;;;;11.77;10.80;;;23.00;99.90;;;;;;10419116;28;20255;-81
2023/08/15 05:36:27;;;;;;;11.13;10.33;;;23.10;99.90;;;;;;10399184;28;20733;-80
2023/08/15 05:41:31;;;;;;;10.33;9.53;;;23.30;99.90;;;;;;10414320;28;20222;-79
2023/08/15 05:46:33;;;;;;;11.23;10.43;;;23.40;99.90;;;;;;10415268;28;20294;-80
2023/08/15 05:51:35;;;;;;;11.00;9.93;;;23.50;99.90;;;;;;10417489;28;20556;-80
2023/08/15 05:56:40;;;;;;;10.47;9.70;;;23.60;99.90;;;;;;10415009;28;20226;-78
2023/08/15 06:01:42;;;;;;;10.67;9.97;;;23.70;99.90;;;;;;10411085;28;20232;-79
2023/08/15 06:06:44;;;;;;;11.10;10.40;;;23.80;99.90;;;;;;10416660;28;20770;-78
2023/08/15 06:11:49;;;;;;;11.43;10.63;;;23.80;99.90;;;;;;10415594;28;20205;-80
2023/08/15 06:16:52;;;;;;;11.13;10.33;;;23.90;99.90;;;;;;10415539;28;20222;-80
2023/08/15 06:21:54;;;;;;;10.60;9.80;;;23.90;99.90;;;;;;10417527;28;20294;-79
2023/08/15 06:26:57;;;;;;;10.20;9.20;;;24.00;99.90;;;;;;10416798;28;20251;-79
2023/08/15 06:31:59;;;;;;;10.90;10.20;;;24.10;99.90;;;;;;10417192;28;20198;-78
2023/08/15 06:37:02;;;;;;;10.87;10.07;;;24.30;99.90;;;;;;10415509;28;20253;-80
2023/08/15 06:42:05;;;;;;;12.10;11.20;;;24.40;99.90;;;;;;10416184;28;20396;-79
2023/08/15 06:47:07;;;;;;;11.00;10.20;;;24.40;99.90;;;;;;10415156;28;20240;-79
2023/08/15 06:52:09;;;;;;;11.70;10.73;;;24.40;99.90;;;;;;10417673;28;20206;-80
2023/08/15 06:57:13;;;;;;;11.23;10.43;;;24.40;99.90;;;;;;10414011;28;20226;-79
2023/08/15 07:02:15;;;;;;;10.97;10.17;;;24.50;99.90;;;;;;10412085;28;20340;-78
2023/08/15 07:07:17;;;;;;;17.67;10.90;;;24.60;99.90;;;;;;10414723;28;20233;-80
2023/08/15 07:12:21;;;;;;;10.70;9.90;;;24.70;99.90;;;;;;10413115;28;20684;-80
2023/08/15 07:17:23;;;;;;;11.40;10.40;;;25.00;99.90;;;;;;10415916;28;20217;-80
2023/08/15 07:22:25;;;;;;;10.13;9.23;;;25.30;99.90;;;;;;10415149;28;20230;-80
2023/08/15 07:27:28;;;;;;;9.60;8.70;;;25.40;99.90;;;;;;10417896;28;20245;-79
2023/08/15 07:32:31;;;;;;;9.60;8.80;;;25.50;99.90;;;;;;10424777;28;20210;-79
2023/08/15 07:37:33;;;;;;;7.97;7.47;;;25.70;99.90;;;;;;10423650;28;20222;-79
2023/08/15 07:42:37;;;;;;;9.07;8.10;;;26.00;99.90;;;;;;10435672;28;20226;-80
2023/08/15 07:47:39;;;;;;;8.13;7.50;;;26.50;99.90;;;;;;10419852;28;20238;-79
2023/08/15 07:52:42;;;;;;;8.50;7.80;;;26.80;99.90;;;;;;10418956;28;20545;-80
2023/08/15 07:57:46;;;;;;;8.07;6.90;;;27.10;99.90;;;;;;10421558;28;20236;-79
2023/08/15 08:02:48;;;;;;;7.40;6.70;;;27.60;99.90;;;;;;10418111;28;20229;-80
2023/08/15 08:07:51;;;;;;;9.00;6.90;;;27.90;99.90;;;;;;10422448;28;20229;-79
2023/08/15 08:12:54;;;;;;;8.93;7.77;;;28.10;99.90;;;;;;10418759;28;20576;-80
2023/08/15 08:17:57;;;;;;;7.60;7.10;;;28.10;99.90;;;;;;10422822;28;20222;-80
2023/08/15 08:23:02;;;;;;;7.53;6.93;;;27.90;99.90;;;;;;10422693;28;20247;-79
2023/08/15 08:28:06;;;;;;;6.60;6.10;;;27.80;99.90;;;;;;10418990;28;20229;-79
2023/08/15 08:33:09;;;;;;;7.40;6.80;;;28.00;99.90;;;;;;10420841;28;20212;-79
2023/08/15 08:38:11;;;;;;;7.70;7.10;;;28.30;99.90;;;;;;10417864;28;20222;-80
2023/08/15 08:43:15;;;;;;;7.50;6.90;;;28.40;99.90;;;;;;10418563;28;20717;-79
2023/08/15 08:48:18;;;;;;;7.07;6.37;;;28.50;99.90;;;;;;10420565;28;20241;-80
2023/08/15 08:53:21;;;;;;;8.03;7.30;;;28.60;99.90;;;;;;10420719;28;20206;-79
2023/08/15 08:58:28;;;;;;;8.10;7.50;;;28.80;99.90;;;;;;10421305;28;20228;-80
2023/08/15 09:03:30;;;;;;;7.60;6.97;;;28.80;99.90;;;;;;10422089;28;20652;-80
2023/08/15 09:08:32;;;;;;;8.73;8.13;;;28.70;99.90;;;;;;10420418;28;20230;-81
2023/08/15 09:13:46;;;;;;;8.00;7.30;;;28.60;99.90;;;;;;10421203;28;20213;-80
2023/08/15 09:18:48;;;;;;;6.93;6.43;;;28.50;99.90;;;;;;10424447;28;20309;-80
2023/08/15 09:23:52;;;;;;;7.67;6.97;;;28.60;99.90;;;;;;10421600;28;20241;-80
2023/08/15 09:28:57;;;;;;;20.73;7.47;;;28.70;99.90;;;;;;10416824;28;20311;-79
2023/08/15 09:34:01;;;;;;;5.30;4.80;;;29.00;99.90;;;;;;10414670;28;20229;-81
2023/08/15 09:39:08;;;;;;;4.63;4.33;;;29.20;99.90;;;;;;10395737;28;20689;-81
2023/08/15 09:44:34;;;;;;;3.47;3.17;;;29.20;99.90;;;;;;10409768;28;20225;-80
2023/08/15 09:49:37;;;;;;;7.40;4.83;;;29.20;99.70;;;;;;10386860;28;20199;-80
2023/08/15 09:54:43;;;;;;;5.00;4.60;;;29.10;99.90;;;;;;10396599;28;20253;-79
2023/08/15 09:59:49;;;;;;;4.10;3.77;;;29.00;99.90;;;;;;10407038;28;20557;-80
2023/08/15 10:05:00;;;;;;;3.90;3.70;;;29.10;99.90;;;;;;10412825;28;20226;-80
2023/08/15 10:10:05;;;;;;;4.10;3.80;;;29.10;99.90;;;;;;10404731;28;20662;-79
2023/08/15 10:15:10;;;;;;;5.93;4.40;;;29.10;99.90;;;;;;10388115;28;20223;-79
2023/08/15 10:20:18;;;;;;;4.43;4.03;;;29.10;99.90;;;;;;10380793;28;20881;-79
2023/08/15 10:25:34;;;;;;;4.73;4.33;;;29.00;99.90;;;;;;10386976;28;20545;-80
2023/08/15 10:30:41;;;;;;;4.87;4.57;;;29.00;99.90;;;;;;10399519;28;20570;-79
2023/08/15 10:35:50;;;;;;;4.80;4.40;;;29.00;99.90;;;;;;10385080;28;20302;-79
2023/08/15 10:41:03;;;;;;;4.50;4.10;;;28.80;99.90;;;;;;10399718;28;21191;-81
2023/08/15 10:46:08;;;;;;;5.93;3.93;;;28.70;99.90;;;;;;10435495;22;20233;-84
2023/08/15 10:51:18;;;;;;;4.20;3.90;;;28.60;99.90;;;;;;10455427;28;20198;-84
2023/08/15 10:56:22;;;;;;;5.27;4.50;;;28.60;99.90;;;;;;10448858;28;20236;-84
2023/08/15 11:01:28;;;;;;;3.70;3.40;;;28.70;99.90;;;;;;10448373;28;20220;-85
2023/08/15 11:06:30;;;;;;;4.20;3.90;;;28.80;99.10;;;;;;10450237;28;20222;-84
2023/08/15 11:11:34;;;;;;;4.80;3.77;;;28.70;98.80;;;;;;10431729;28;20281;-84
2023/08/15 11:16:38;;;;;;;3.60;3.40;;;28.60;95.60;;;;;;10429731;28;20712;-85
2023/08/15 11:21:40;;;;;;;3.83;3.47;;;28.50;97.20;;;;;;10427650;28;20234;-85
2023/08/15 11:26:42;;;;;;;4.17;3.80;;;28.40;96.20;;;;;;10426863;28;20225;-86
2023/08/15 11:31:46;;;;;;;3.60;3.40;;;28.50;98.40;;;;;;10407182;28;20305;-86
2023/08/15 11:36:49;;;;;;;3.80;3.37;;;28.50;99.90;;;;;;10426117;28;20229;-85
2023/08/15 11:41:51;;;;;;;4.00;3.60;;;28.60;97.60;;;;;;10429185;28;20723;-85
2023/08/15 11:46:55;;;;;;;3.90;3.70;;;28.40;98.50;;;;;;10428894;28;20225;-85
2023/08/15 11:52:03;;;;;;;4.83;3.90;;;28.20;99.30;;;;;;10426677;28;20210;-84
2023/08/15 11:57:05;;;;;;;4.93;4.53;;;27.90;99.90;;;;;;10427524;28;20241;-85
2023/08/15 12:02:11;;;;;;;4.63;4.23;;;27.60;99.90;;;;;;10444665;28;20222;-84
2023/08/15 12:07:13;;;;;;;6.87;5.17;;;27.40;99.90;;;;;;10437245;28;20230;-85
2023/08/15 12:12:19;;;;;;;6.47;5.97;;;27.30;99.90;;;;;;10467072;28;20194;-84
2023/08/15 12:17:22;;;;;;;5.20;4.87;;;27.30;99.90;;;;;;10439159;28;20679;-85
2023/08/15 12:22:24;;;;;;;5.30;4.80;;;27.30;99.90;;;;;;10438407;28;20252;-84
2023/08/15 12:27:27;;;;;;;9.00;6.40;;;27.30;99.90;;;;;;10437107;28;20447;-84
2023/08/15 12:32:30;;;;;;;6.80;6.20;;;27.30;99.90;;;;;;10436436;28;20202;-85
2023/08/15 12:37:32;;;;;;;8.30;6.30;;;27.20;99.90;;;;;;10434198;28;21097;-85
2023/08/15 12:42:34;;;;;;;7.40;5.77;;;27.20;99.90;;;;;;10416008;28;20221;-85
2023/08/15 12:47:38;;;;;;;6.40;5.80;;;27.30;99.90;;;;;;10436067;28;20600;-85
2023/08/15 12:52:40;;;;;;;8.53;7.10;;;27.20;99.90;;;;;;10434158;28;20201;-86
2023/08/15 12:57:42;;;;;;;7.07;6.57;;;27.20;99.90;;;;;;10412397;28;20313;-87
2023/08/15 13:02:46;;;;;;;6.50;6.00;;;27.20;99.90;;;;;;10433160;28;20226;-85
2023/08/15 13:07:48;;;;;;;6.43;5.93;;;27.20;99.90;;;;;;10435218;28;20226;-85
2023/08/15 13:12:50;;;;;;;5.70;5.20;;;27.20;99.90;;;;;;10428466;28;20624;-85
2023/08/15 13:17:54;;;;;;;5.40;5.00;;;27.20;99.90;;;;;;10432470;28;20696;-85
2023/08/15 13:22:56;;;;;;;5.07;4.57;;;27.20;99.90;;;;;;10434173;28;20276;-84
2023/08/15 13:27:58;;;;;;;6.60;4.70;;;27.20;99.90;;;;;;10438642;28;20693;-84
2023/08/15 13:33:02;;;;;;;3.93;3.60;;;27.20;99.90;;;;;;10433085;28;20191;-85
2023/08/15 13:38:04;;;;;;;4.87;4.37;;;27.30;99.90;;;;;;10432361;28;20322;-86
2023/08/15 13:43:06;;;;;;;4.50;4.17;;;27.30;99.90;;;;;;10435435;28;20229;-85
2023/08/15 13:48:10;;;;;;;4.27;3.97;;;27.30;99.90;;;;;;10428260;28;20233;-86
2023/08/15 13:53:12;;;;;;;5.90;5.37;;;27.30;99.90;;;;;;10433997;28;20198;-85
2023/08/15 13:58:14;;;;;;;5.40;5.00;;;27.30;99.90;;;;;;10431564;28;20344;-85
2023/08/15 14:03:19;;;;;;;5.17;4.87;;;27.30;99.90;;;;;;10429734;28;20218;-85
2023/08/15 14:08:21;;;;;;;5.70;5.30;;;27.40;99.90;;;;;;10436992;28;20277;-86
2023/08/15 14:13:23;;;;;;;6.13;5.63;;;27.50;99.90;;;;;;10450671;28;20544;-85
2023/08/15 14:18:26;;;;;;;6.23;5.30;;;27.50;99.90;;;;;;10425543;28;20234;-85
2023/08/15 14:23:29;;;;;;;7.13;5.57;;;27.50;99.90;;;;;;10429818;28;20265;-85
2023/08/15 14:28:31;;;;;;;6.30;5.80;;;27.50;99.90;;;;;;10429436;28;20249;-85
2023/08/15 14:33:34;;;;;;;6.93;5.90;;;27.40;99.90;;;;;;10428384;28;20218;-85
2023/08/15 14:38:37;;;;;;;7.37;6.37;;;27.40;99.90;;;;;;10433267;28;20218;-86
2023/08/15 14:43:39;;;;;;;6.10;5.60;;;27.40;99.90;;;;;;10430621;28;20230;-87
2023/08/15 14:48:42;;;;;;;5.53;5.03;;;27.30;99.90;;;;;;10452845;28;20252;-85
2023/08/15 14:53:45;;;;;;;6.63;5.77;;;27.30;99.90;;;;;;10438585;28;20249;-84
2023/08/15 14:58:47;;;;;;;6.33;5.93;;;27.30;99.90;;;;;;10437281;28;20233;-84
2023/08/15 15:03:50;;;;;;;6.90;6.40;;;27.30;99.90;;;;;;10433527;28;20221;-84
2023/08/15 15:08:53;;;;;;;6.70;5.97;;;27.20;99.90;;;;;;10431482;28;20222;-85
2023/08/15 15:13:55;;;;;;;7.30;6.73;;;27.20;99.90;;;;;;10427422;28;20713;-85
2023/08/15 15:18:59;;;;;;;6.33;5.80;;;27.20;99.90;;;;;;10428778;28;20766;-84
2023/08/15 15:24:02;;;;;;;6.63;6.00;;;27.20;99.90;;;;;;10444333;28;20847;-85
2023/08/15 15:29:05;;;;;;;5.80;5.40;;;27.20;99.90;;;;;;10428385;28;20308;-84
2023/08/15 15:34:09;;;;;;;6.03;5.53;;;27.20;99.90;;;;;;10427179;28;20289;-85
2023/08/15 15:39:11;;;;;;;5.73;5.23;;;27.20;99.90;;;;;;10426145;28;20841;-85
2023/08/15 15:44:13;;;;;;;5.87;5.37;;;27.20;99.90;;;;;;10426283;28;20257;-86
2023/08/15 15:49:18;;;;;;;5.10;4.77;;;27.30;99.90;;;;;;10434310;28;20316;-85
2023/08/15 15:54:20;;;;;;;6.30;5.90;;;27.30;99.90;;;;;;10436630;28;20285;-85
2023/08/15 15:59:22;;;;;;;5.50;5.10;;;27.20;99.90;;;;;;10439470;28;20784;-85
2023/08/15 16:04:26;;;;;;;5.27;4.97;;;27.20;99.90;;;;;;10454590;28;20233;-87
2023/08/15 16:09:28;;;;;;;4.73;4.33;;;27.20;99.90;;;;;;10440688;28;20226;-84
2023/08/15 16:14:30;;;;;;;4.73;4.33;;;27.20;99.90;;;;;;10435566;28;20365;-85
2023/08/15 16:19:33;;;;;;;4.77;4.47;;;27.20;99.90;;;;;;10436490;28;20226;-85
2023/08/15 16:24:35;;;;;;;6.77;5.10;;;27.10;99.90;;;;;;10433156;28;20225;-85
2023/08/15 16:29:37;;;;;;;4.00;3.70;;;27.10;99.90;;;;;;10438366;28;20277;-85
2023/08/15 16:34:41;;;;;;;5.40;5.00;;;27.10;99.90;;;;;;10435478;28;20213;-85
2023/08/15 16:39:43;;;;;;;4.80;4.33;;;27.00;99.90;;;;;;10433746;28;20210;-84
2023/08/15 16:44:45;;;;;;;5.03;4.43;;;27.00;99.90;;;;;;10434115;28;20605;-85
2023/08/15 16:49:49;;;;;;;4.53;4.23;;;26.90;99.90;;;;;;10435389;28;20569;-85
2023/08/15 16:54:51;;;;;;;3.90;3.60;;;26.90;99.90;;;;;;10434663;28;20202;-85
2023/08/15 16:59:53;;;;;;;4.93;4.63;;;26.80;99.90;;;;;;10433642;28;20218;-85
2023/08/15 17:04:57;;;;;;;5.37;4.83;;;26.80;99.90;;;;;;10439197;28;20649;-84
2023/08/15 17:09:59;;;;;;;4.37;4.07;;;26.70;99.90;;;;;;10443530;28;20222;-85
2023/08/15 17:15:01;;;;;;;4.57;4.27;;;26.70;99.90;;;;;;10435125;28;20268;-85
2023/08/15 17:20:06;;;;;;;4.70;4.37;;;26.60;99.90;;;;;;10436049;28;20226;-86
2023/08/15 17:25:09;;;;;;;4.03;3.73;;;26.60;99.90;;;;;;10457819;28;20232;-85
2023/08/15 17:30:12;;;;;;;4.47;4.07;;;26.70;99.90;;;;;;10431948;28;20220;-85
2023/08/15 17:35:16;;;;;;;4.07;3.77;;;26.60;99.90;;;;;;10432859;28;20271;-85
2023/08/15 17:40:18;;;;;;;4.20;3.90;;;26.60;99.90;;;;;;10430236;28;20591;-86
2023/08/15 17:45:20;;;;;;;4.70;4.40;;;26.50;99.90;;;;;;10431561;28;20359;-85
2023/08/15 17:50:24;;;;;;;4.33;4.00;;;26.50;99.90;;;;;;10436361;28;20202;-86
2023/08/15 17:55:27;;;;;;;4.23;3.83;;;26.40;99.90;;;;;;10440704;28;20209;-88
2023/08/15 18:00:29;;;;;;;5.43;3.80;;;26.30;99.90;;;;;;10490474;28;20792;-86
2023/08/15 18:05:34;;;;;;;4.90;4.50;;;26.20;99.90;;;;;;10486255;28;20217;-86
2023/08/15 18:10:36;;;;;;;4.00;3.70;;;26.20;99.90;;;;;;10490766;28;20186;-86
2023/08/15 18:15:38;;;;;;;4.50;4.10;;;26.10;99.90;;;;;;10479153;28;20218;-85
2023/08/15 18:20:42;;;;;;;4.63;4.23;;;26.00;99.90;;;;;;10422534;28;20277;-84
2023/08/15 18:25:44;;;;;;;4.57;4.27;;;25.90;99.90;;;;;;10431979;28;20236;-85
2023/08/15 18:30:46;;;;;;;4.43;4.10;;;25.80;99.90;;;;;;10430914;28;20207;-84
2023/08/15 18:35:52;;;;;;;5.10;4.70;;;25.70;99.90;;;;;;10430589;28;20312;-84
2023/08/15 18:40:54;;;;;;;5.50;5.00;;;25.60;99.90;;;;;;10429535;28;20383;-85
2023/08/15 18:45:57;;;;;;;7.83;4.87;;;25.50;99.90;;;;;;10434752;28;20229;-85
2023/08/15 18:51:01;;;;;;;4.57;4.20;;;25.50;99.90;;;;;;10429752;28;20198;-85
2023/08/15 18:56:05;;;;;;;5.00;4.60;;;25.40;99.90;;;;;;10429482;28;20222;-85
2023/08/15 19:01:07;;;;;;;4.80;4.50;;;25.30;99.90;;;;;;10428199;28;20206;-85
2023/08/15 19:06:10;;;;;;;5.33;4.93;;;25.30;99.90;;;;;;10428441;28;20308;-84
2023/08/15 19:11:13;;;;;;;5.30;5.00;;;25.20;99.90;;;;;;10428857;28;20227;-85
2023/08/15 19:16:15;;;;;;;6.00;5.60;;;25.10;99.90;;;;;;10426820;28;20312;-85
2023/08/15 19:21:19;;;;;;;5.37;4.97;;;25.00;99.90;;;;;;10427900;28;20220;-85
2023/08/15 19:26:21;;;;;;;6.43;5.90;;;25.00;99.90;;;;;;10426858;28;20226;-86
2023/08/15 19:31:23;;;;;;;6.83;6.33;;;24.90;99.90;;;;;;10430291;28;20202;-85
2023/08/15 19:36:27;;;;;;;6.20;5.70;;;24.90;99.90;;;;;;10443217;28;20356;-86
2023/08/15 19:41:29;;;;;;;6.73;6.23;;;24.90;99.90;;;;;;10407939;28;20708;-85
2023/08/15 19:46:31;;;;;;;10.13;6.73;;;24.80;99.90;;;;;;10423410;28;20620;-85
2023/08/15 19:51:35;;;;;;;6.13;5.70;;;24.80;99.90;;;;;;10425533;28;20571;-86
2023/08/15 19:56:37;;;;;;;6.00;5.60;;;24.70;99.90;;;;;;10429795;28;20296;-85
2023/08/15 20:01:39;;;;;;;10.20;6.23;;;24.60;99.90;;;;;;10450331;28;20222;-88
2023/08/15 20:06:43;;;;;;;5.60;5.13;;;24.60;99.90;;;;;;10464738;28;20256;-86
2023/08/15 20:11:47;;;;;;;5.23;4.63;;;24.50;99.90;;;;;;10428189;28;20245;-86
2023/08/15 20:16:49;;;;;;;5.67;5.17;;;24.40;99.90;;;;;;10425628;28;20218;-85
2023/08/15 20:21:53;;;;;;;5.43;4.93;;;24.40;99.90;;;;;;10425801;28;20284;-86
2023/08/15 20:26:55;;;;;;;4.50;4.20;;;24.30;99.90;;;;;;10429843;28;20322;-85
2023/08/15 20:31:57;;;;;;;6.00;4.33;;;24.20;99.90;;;;;;10432326;28;20206;-85
2023/08/15 20:37:00;;;;;;;5.43;5.03;;;24.20;99.90;;;;;;10448655;28;20226;-85
2023/08/15 20:42:03;;;;;;;5.07;4.60;;;24.00;99.90;;;;;;10438815;28;20198;-84
2023/08/15 20:47:05;;;;;;;5.10;4.80;;;24.00;99.90;;;;;;10439510;28;20224;-85
2023/08/15 20:52:08;;;;;;;4.73;4.23;;;23.90;99.90;;;;;;10436260;28;20217;-85
2023/08/15 20:57:10;;;;;;;4.57;4.27;;;23.90;99.90;;;;;;10455335;28;20234;-84
2023/08/15 21:02:12;;;;;;;4.53;4.13;;;23.80;99.90;;;;;;10448975;28;20601;-84
2023/08/15 21:07:16;;;;;;;4.93;4.63;;;23.80;99.90;;;;;;10437045;28;20312;-85
2023/08/15 21:12:18;;;;;;;4.80;4.50;;;23.80;99.90;;;;;;10433795;28;20252;-85
2023/08/15 21:17:20;;;;;;;5.37;4.97;;;23.70;99.90;;;;;;10414190;28;20222;-85
2023/08/15 21:22:24;;;;;;;7.00;5.23;;;23.70;99.90;;;;;;10430473;28;20221;-86
2023/08/15 21:27:26;;;;;;;5.57;4.43;;;23.60;99.90;;;;;;10430513;28;20233;-86
2023/08/15 21:32:28;;;;;;;4.40;4.10;;;23.60;99.90;;;;;;10422729;28;20363;-86
2023/08/15 21:37:32;;;;;;;4.80;4.40;;;23.60;99.90;;;;;;10428799;28;20226;-85
2023/08/15 21:42:34;;;;;;;5.10;4.70;;;23.50;99.90;;;;;;10431835;28;20206;-86
2023/08/15 21:47:36;;;;;;;3.80;3.60;;;23.50;99.90;;;;;;10430313;28;20236;-86
2023/08/15 21:52:40;;;;;;;5.63;4.60;;;23.40;99.90;;;;;;10430148;28;20206;-85
2023/08/15 21:57:42;;;;;;;4.80;4.50;;;23.40;99.90;;;;;;10430689;28;20233;-86
2023/08/15 22:02:44;;;;;;;4.37;4.07;;;23.40;99.90;;;;;;10432772;28;20595;-86
2023/08/15 22:07:47;;;;;;;4.17;3.87;;;23.40;99.90;;;;;;10433231;28;20225;-87
2023/08/15 22:12:51;;;;;;;5.57;4.80;;;23.30;99.90;;;;;;10454376;28;20209;-86
2023/08/15 22:17:53;;;;;;;4.80;4.50;;;23.30;99.90;;;;;;10431058;28;20656;-86
2023/08/15 22:22:56;;;;;;;4.77;4.30;;;23.40;99.90;;;;;;10430245;28;20585;-86
2023/08/15 22:27:58;;;;;;;4.67;4.23;;;23.30;99.90;;;;;;10421376;28;20240;-85
2023/08/15 22:33:01;;;;;;;4.53;4.30;;;23.30;99.90;;;;;;10437330;28;20202;-86
2023/08/15 22:38:04;;;;;;;4.93;4.53;;;23.30;99.90;;;;;;10432680;28;20233;-87
2023/08/15 22:43:07;;;;;;;4.70;4.40;;;23.30;99.90;;;;;;10442759;28;20225;-86
2023/08/15 22:48:09;;;;;;;4.70;4.33;;;23.30;99.90;;;;;;10427871;28;20775;-86
2023/08/15 22:53:12;;;;;;;4.67;4.37;;;23.20;99.90;;;;;;10431943;28;20212;-86
2023/08/15 22:58:17;;;;;;;4.57;3.93;;;23.20;99.90;;;;;;10429203;28;20226;-86
2023/08/15 23:03:19;;;;;;;4.77;4.47;;;23.20;99.90;;;;;;10426276;28;20336;-86
2023/08/15 23:08:23;;;;;;;5.07;4.30;;;23.20;99.90;;;;;;10426317;28;20371;-86
2023/08/15 23:13:25;;;;;;;4.93;4.53;;;23.10;99.90;;;;;;10430343;28;20202;-87
2023/08/15 23:18:27;;;;;;;5.00;4.60;;;23.10;99.90;;;;;;10428874;28;20325;-86
2023/08/15 23:23:30;;;;;;;6.07;5.57;;;23.10;99.90;;;;;;10424472;28;20271;-86
2023/08/15 23:28:33;;;;;;;4.70;4.40;;;23.00;99.90;;;;;;10429076;28;20229;-86
2023/08/15 23:33:35;;;;;;;6.47;4.70;;;23.00;99.90;;;;;;10427931;28;20202;-85
2023/08/15 23:38:39;;;;;;;5.57;5.07;;;23.00;99.90;;;;;;10422113;28;20224;-86
2023/08/15 23:43:41;;;;;;;4.73;4.43;;;23.00;99.90;;;;;;10427026;28;20226;-85
2023/08/15 23:48:43;;;;;;;4.90;4.50;;;22.90;99.90;;;;;;10428623;28;20237;-86
2023/08/15 23:53:47;;;;;;;4.97;4.60;;;22.90;99.90;;;;;;10427011;28;20727;-86
2023/08/15 23:58:49;;;;;;;4.73;4.43;;;22.80;99.90;;;;;;10424706;28;20232;-86
